PWSweather.com
Personal Weather Stations
Station Observations
IPOMMEUS2
PommeuseFR 77515

PommeuseFR 77515

Lat: 48.805, Lon: 3.015

Elevation: 0

Station Type: Oregon Scientific WMRS200

http://meteo.glou-prods.net/

High Low Average
Temperature 84.9°F29.4°C 50.2°F10.1°C 67.5°F19.7°C
Dew Point 54.3°F12.4°C 40.6°F4.8°C 48.0°F8.9°C
Winds 3.1 mph 5.0 kmh 0.2 mph 0.3 kmh 2.0 mph SE3.2 kmh SE
Wind Gusts 8.5 mph13.7 kmh -- 3.0 mph4.8 kmh
Humidity 91% 23% 57%
Pressure 29.88 in1011.9 mb 29.83 in1010.2 mb -
Precipitation 0.00 in0.0 mm - -
Hour Temp Dew Point Humidity Winds Wind Gusts Pressure Precip Precip Rate Daily Precip Total
12:08 AM 56.1°F13.4°C 48.4°F9.1°C 75% - E16091.8 kmh E -- 29.83 in1010.2 mb 0.00 in0.0 mm 0.00 in/hr0.0 mm/hr 0.00 in0.0 mm
12:18 AM 55.9°F13.3°C 48.6°F9.2°C 76% - E16091.8 kmh E -- 29.83 in1010.2 mb 0.00 in0.0 mm 0.00 in/hr0.0 mm/hr 0.00 in0.0 mm
12:28 AM 55.6°F13.1°C 48.7°F9.3°C 78% - E16091.8 kmh E -- 29.83 in1010.2 mb 0.00 in0.0 mm 0.00 in/hr0.0 mm/hr 0.00 in0.0 mm
12:38 AM 55.0°F12.8°C 48.6°F9.2°C 79% - E16091.8 kmh E -- 29.83 in1010.2 mb 0.00 in0.0 mm 0.00 in/hr0.0 mm/hr 0.00 in0.0 mm
12:48 AM 54.7°F12.6°C 48.6°F9.2°C 80% - E16091.8 kmh E -- 29.83 in1010.2 mb 0.00 in0.0 mm 0.00 in/hr0.0 mm/hr 0.00 in0.0 mm
12:58 AM 54.5°F12.5°C 48.4°F9.1°C 80% - E16091.8 kmh E -- 29.83 in1010.2 mb 0.00 in0.0 mm 0.00 in/hr0.0 mm/hr 0.00 in0.0 mm
01:08 AM 54.1°F12.3°C 48.4°F9.1°C 81% - E16091.8 kmh E -- 29.83 in1010.2 mb 0.00 in0.0 mm 0.00 in/hr0.0 mm/hr 0.00 in0.0 mm
01:18 AM 54.0°F12.2°C 48.2°F9.0°C 81% - E16091.8 kmh E 1.3 mph2.1 kmh 29.83 in1010.2 mb 0.00 in0.0 mm 0.00 in/hr0.0 mm/hr 0.00 in0.0 mm
01:28 AM 53.6°F12.0°C 48.2°F9.0°C 82% - E16091.8 kmh E -- 29.83 in1010.2 mb 0.00 in0.0 mm 0.00 in/hr0.0 mm/hr 0.00 in0.0 mm
01:39 AM 53.2°F11.8°C 48.2°F9.0°C 83% - E16091.8 kmh E 1.1 mph1.8 kmh 29.83 in1010.2 mb 0.00 in0.0 mm 0.00 in/hr0.0 mm/hr 0.00 in0.0 mm
01:49 AM 53.1°F11.7°C 48.0°F8.9°C 83% - E16091.8 kmh E 0.9 mph1.4 kmh 29.83 in1010.2 mb 0.00 in0.0 mm 0.00 in/hr0.0 mm/hr 0.00 in0.0 mm
01:59 AM 52.9°F11.6°C 47.8°F8.8°C 83% - E16091.8 kmh E 0.9 mph1.4 kmh 29.83 in1010.2 mb 0.00 in0.0 mm 0.00 in/hr0.0 mm/hr 0.00 in0.0 mm
02:09 AM 52.7°F11.5°C 48.0°F8.9°C 84% - E16091.8 kmh E 1.3 mph2.1 kmh 29.83 in1010.2 mb 0.00 in0.0 mm 0.00 in/hr0.0 mm/hr 0.00 in0.0 mm
02:19 AM 52.5°F11.4°C 47.8°F8.8°C 84% - E16091.8 kmh E 0.9 mph1.4 kmh 29.83 in1010.2 mb 0.00 in0.0 mm 0.00 in/hr0.0 mm/hr 0.00 in0.0 mm
02:29 AM 52.3°F11.3°C 48.0°F8.9°C 85% - SSW16091.8 kmh SSW 1.3 mph2.1 kmh 29.85 in1010.8 mb 0.00 in0.0 mm 0.00 in/hr0.0 mm/hr 0.00 in0.0 mm
02:39 AM 52.0°F11.1°C 47.7°F8.7°C 85% - E16091.8 kmh E -- 29.85 in1010.8 mb 0.00 in0.0 mm 0.00 in/hr0.0 mm/hr 0.00 in0.0 mm
02:49 AM 51.8°F11.0°C 47.5°F8.6°C 85% - E16091.8 kmh E 1.1 mph1.8 kmh 29.85 in1010.8 mb 0.00 in0.0 mm 0.00 in/hr0.0 mm/hr 0.00 in0.0 mm
02:59 AM 51.6°F10.9°C 47.5°F8.6°C 86% - SSW16091.8 kmh SSW 1.6 mph2.6 kmh 29.85 in1010.8 mb 0.00 in0.0 mm 0.00 in/hr0.0 mm/hr 0.00 in0.0 mm
03:09 AM 51.4°F10.8°C 47.5°F8.6°C 86% - E16091.8 kmh E -- 29.85 in1010.8 mb 0.00 in0.0 mm 0.00 in/hr0.0 mm/hr 0.00 in0.0 mm
03:19 AM 51.3°F10.7°C 47.3°F8.5°C 86% - E16091.8 kmh E -- 29.85 in1010.8 mb 0.00 in0.0 mm 0.00 in/hr0.0 mm/hr 0.00 in0.0 mm
03:29 AM 51.3°F10.7°C 47.3°F8.5°C 86% - E16091.8 kmh E -- 29.85 in1010.8 mb 0.00 in0.0 mm 0.00 in/hr0.0 mm/hr 0.00 in0.0 mm
03:39 AM 51.3°F10.7°C 47.5°F8.6°C 87% - E16091.8 kmh E -- 29.84 in1010.5 mb 0.00 in0.0 mm 0.00 in/hr0.0 mm/hr 0.00 in0.0 mm
03:49 AM 51.1°F10.6°C 47.7°F8.7°C 88% - E16091.8 kmh E 0.9 mph1.4 kmh 29.83 in1010.2 mb 0.00 in0.0 mm 0.00 in/hr0.0 mm/hr 0.00 in0.0 mm
03:59 AM 50.9°F10.5°C 47.5°F8.6°C 88% - SSW16091.8 kmh SSW 1.3 mph2.1 kmh 29.85 in1010.8 mb 0.00 in0.0 mm 0.00 in/hr0.0 mm/hr 0.00 in0.0 mm
04:09 AM 50.7°F10.4°C 47.3°F8.5°C 88% - E16091.8 kmh E 1.1 mph1.8 kmh 29.85 in1010.8 mb 0.00 in0.0 mm 0.00 in/hr0.0 mm/hr 0.00 in0.0 mm
04:19 AM 50.7°F10.4°C 47.7°F8.7°C 89% - E16091.8 kmh E 0.9 mph1.4 kmh 29.85 in1010.8 mb 0.00 in0.0 mm 0.00 in/hr0.0 mm/hr 0.00 in0.0 mm
04:29 AM 50.5°F10.3°C 47.5°F8.6°C 89% 0.2 mph SSE0.3 kmh SSE 2.2 mph3.5 kmh 29.85 in1010.8 mb 0.00 in0.0 mm 0.00 in/hr0.0 mm/hr 0.00 in0.0 mm
04:39 AM 50.4°F10.2°C 47.3°F8.5°C 89% - E16091.8 kmh E -- 29.85 in1010.8 mb 0.00 in0.0 mm 0.00 in/hr0.0 mm/hr 0.00 in0.0 mm
04:49 AM 50.4°F10.2°C 46.9°F8.3°C 88% - E16091.8 kmh E -- 29.85 in1010.8 mb 0.00 in0.0 mm 0.00 in/hr0.0 mm/hr 0.00 in0.0 mm
04:59 AM 50.2°F10.1°C 47.1°F8.4°C 89% - E16091.8 kmh E -- 29.85 in1010.8 mb 0.00 in0.0 mm 0.00 in/hr0.0 mm/hr 0.00 in0.0 mm
05:09 AM 50.2°F10.1°C 47.1°F8.4°C 89% - E16091.8 kmh E -- 29.85 in1010.8 mb 0.00 in0.0 mm 0.00 in/hr0.0 mm/hr 0.00 in0.0 mm
05:19 AM 50.2°F10.1°C 47.1°F8.4°C 89% - E16091.8 kmh E -- 29.85 in1010.8 mb 0.00 in0.0 mm 0.00 in/hr0.0 mm/hr 0.00 in0.0 mm
05:29 AM 50.2°F10.1°C 47.1°F8.4°C 89% - E16091.8 kmh E -- 29.85 in1010.8 mb 0.00 in0.0 mm 0.00 in/hr0.0 mm/hr 0.00 in0.0 mm
05:39 AM 50.2°F10.1°C 47.3°F8.5°C 90% - E16091.8 kmh E -- 29.85 in1010.8 mb 0.00 in0.0 mm 0.00 in/hr0.0 mm/hr 0.00 in0.0 mm
05:49 AM 50.4°F10.2°C 47.5°F8.6°C 90% - E16091.8 kmh E 0.9 mph1.4 kmh 29.85 in1010.8 mb 0.00 in0.0 mm 0.00 in/hr0.0 mm/hr 0.00 in0.0 mm
05:59 AM 50.4°F10.2°C 47.5°F8.6°C 90% - E16091.8 kmh E -- 29.88 in1011.9 mb 0.00 in0.0 mm 0.00 in/hr0.0 mm/hr 0.00 in0.0 mm
06:09 AM 50.7°F10.4°C 48.2°F9.0°C 91% - E16091.8 kmh E -- 29.87 in1011.5 mb 0.00 in0.0 mm 0.00 in/hr0.0 mm/hr 0.00 in0.0 mm
06:19 AM 51.3°F10.7°C 48.7°F9.3°C 91% - E16091.8 kmh E -- 29.85 in1010.8 mb 0.00 in0.0 mm 0.00 in/hr0.0 mm/hr 0.00 in0.0 mm
06:29 AM 52.2°F11.2°C 49.6°F9.8°C 91% - E16091.8 kmh E -- 29.83 in1010.2 mb 0.00 in0.0 mm 0.00 in/hr0.0 mm/hr 0.00 in0.0 mm
06:39 AM 52.9°F11.6°C 50.4°F10.2°C 91% - E16091.8 kmh E -- 29.83 in1010.2 mb 0.00 in0.0 mm 0.00 in/hr0.0 mm/hr 0.00 in0.0 mm
06:49 AM 53.6°F12.0°C 50.7°F10.4°C 90% - E16091.8 kmh E -- 29.83 in1010.2 mb 0.00 in0.0 mm 0.00 in/hr0.0 mm/hr 0.00 in0.0 mm
06:59 AM 54.9°F12.7°C 51.6°F10.9°C 89% - E16091.8 kmh E 0.9 mph1.4 kmh 29.83 in1010.2 mb 0.00 in0.0 mm 0.00 in/hr0.0 mm/hr 0.00 in0.0 mm
07:09 AM 55.9°F13.3°C 52.7°F11.5°C 89% - E16091.8 kmh E -- 29.83 in1010.2 mb 0.00 in0.0 mm 0.00 in/hr0.0 mm/hr 0.00 in0.0 mm
07:19 AM 56.8°F13.8°C 53.2°F11.8°C 88% - E16091.8 kmh E -- 29.83 in1010.2 mb 0.00 in0.0 mm 0.00 in/hr0.0 mm/hr 0.00 in0.0 mm
07:29 AM 58.1°F14.5°C 54.3°F12.4°C 87% - NW16091.8 kmh NW 1.3 mph2.1 kmh 29.85 in1010.8 mb 0.00 in0.0 mm 0.00 in/hr0.0 mm/hr 0.00 in0.0 mm
07:39 AM 59.5°F15.3°C 54.0°F12.2°C 82% 0.4 mph SE0.6 kmh SE 3.1 mph5.0 kmh 29.85 in1010.8 mb 0.00 in0.0 mm 0.00 in/hr0.0 mm/hr 0.00 in0.0 mm
07:49 AM 60.6°F15.9°C 53.4°F11.9°C 77% 0.7 mph SSW1.1 kmh SSW 2.7 mph4.3 kmh 29.85 in1010.8 mb 0.00 in0.0 mm 0.00 in/hr0.0 mm/hr 0.00 in0.0 mm
07:59 AM 61.9°F16.6°C 51.6°F10.9°C 69% 1.6 mph SE2.6 kmh SE 3.8 mph6.1 kmh 29.85 in1010.8 mb 0.00 in0.0 mm 0.00 in/hr0.0 mm/hr 0.00 in0.0 mm
08:09 AM 62.8°F17.1°C 51.6°F10.9°C 67% 1.1 mph SSE1.8 kmh SSE 4.5 mph7.2 kmh 29.87 in1011.5 mb 0.00 in0.0 mm 0.00 in/hr0.0 mm/hr 0.00 in0.0 mm
08:19 AM 63.7°F17.6°C 51.6°F10.9°C 65% 1.1 mph SE1.8 kmh SE 4.3 mph6.9 kmh 29.88 in1011.9 mb 0.00 in0.0 mm 0.00 in/hr0.0 mm/hr 0.00 in0.0 mm
08:29 AM 64.4°F18.0°C 49.8°F9.9°C 59% 2.2 mph SE3.5 kmh SE 5.4 mph8.7 kmh 29.86 in1011.2 mb 0.00 in0.0 mm 0.00 in/hr0.0 mm/hr 0.00 in0.0 mm
08:39 AM 65.1°F18.4°C 50.0°F10.0°C 58% 2.0 mph SE3.2 kmh SE 4.3 mph6.9 kmh 29.87 in1011.5 mb 0.00 in0.0 mm 0.00 in/hr0.0 mm/hr 0.00 in0.0 mm
08:49 AM 65.8°F18.8°C 49.6°F9.8°C 56% 1.8 mph SE2.9 kmh SE 4.3 mph6.9 kmh 29.88 in1011.9 mb 0.00 in0.0 mm 0.00 in/hr0.0 mm/hr 0.00 in0.0 mm
08:59 AM 66.6°F19.2°C 49.5°F9.7°C 54% 1.6 mph SSE2.6 kmh SSE 4.9 mph7.9 kmh 29.88 in1011.9 mb 0.00 in0.0 mm 0.00 in/hr0.0 mm/hr 0.00 in0.0 mm
09:09 AM 67.5°F19.7°C 49.6°F9.8°C 53% 2.0 mph SE3.2 kmh SE 6.3 mph10.1 kmh 29.88 in1011.9 mb 0.00 in0.0 mm 0.00 in/hr0.0 mm/hr 0.00 in0.0 mm
09:19 AM 68.4°F20.2°C 49.5°F9.7°C 51% 2.0 mph SE3.2 kmh SE 4.3 mph6.9 kmh 29.88 in1011.9 mb 0.00 in0.0 mm 0.00 in/hr0.0 mm/hr 0.00 in0.0 mm
09:29 AM 69.6°F20.9°C 50.7°F10.4°C 51% 1.8 mph SE2.9 kmh SE 5.4 mph8.7 kmh 29.86 in1011.2 mb 0.00 in0.0 mm 0.00 in/hr0.0 mm/hr 0.00 in0.0 mm
09:39 AM 71.2°F21.8°C 50.5°F10.3°C 48% 2.0 mph ESE3.2 kmh ESE 5.6 mph9.0 kmh 29.87 in1011.5 mb 0.00 in0.0 mm 0.00 in/hr0.0 mm/hr 0.00 in0.0 mm
09:49 AM 72.1°F22.3°C 50.2°F10.1°C 46% 1.8 mph SE2.9 kmh SE 5.6 mph9.0 kmh 29.88 in1011.9 mb 0.00 in0.0 mm 0.00 in/hr0.0 mm/hr 0.00 in0.0 mm
09:59 AM 73.2°F22.9°C 49.5°F9.7°C 43% 2.5 mph SE4.0 kmh SE 6.3 mph10.1 kmh 29.88 in1011.9 mb 0.00 in0.0 mm 0.00 in/hr0.0 mm/hr 0.00 in0.0 mm
10:09 AM 74.1°F23.4°C 50.2°F10.1°C 43% 2.2 mph SE3.5 kmh SE 6.3 mph10.1 kmh 29.88 in1011.9 mb 0.00 in0.0 mm 0.00 in/hr0.0 mm/hr 0.00 in0.0 mm
10:19 AM 74.8°F23.8°C 50.9°F10.5°C 43% 2.2 mph SSE3.5 kmh SSE 7.2 mph11.6 kmh 29.88 in1011.9 mb 0.00 in0.0 mm 0.00 in/hr0.0 mm/hr 0.00 in0.0 mm
10:29 AM 75.9°F24.4°C 50.5°F10.3°C 41% 2.0 mph ESE3.2 kmh ESE 5.6 mph9.0 kmh 29.86 in1011.2 mb 0.00 in0.0 mm 0.00 in/hr0.0 mm/hr 0.00 in0.0 mm
10:39 AM 76.8°F24.9°C 50.7°F10.4°C 40% 1.6 mph SE2.6 kmh SE 7.4 mph11.9 kmh 29.85 in1010.8 mb 0.00 in0.0 mm 0.00 in/hr0.0 mm/hr 0.00 in0.0 mm
10:49 AM 77.2°F25.1°C 50.4°F10.2°C 39% 2.9 mph SSE4.7 kmh SSE 5.6 mph9.0 kmh 29.85 in1010.8 mb 0.00 in0.0 mm 0.00 in/hr0.0 mm/hr 0.00 in0.0 mm
10:59 AM 78.1°F25.6°C 50.4°F10.2°C 38% 2.2 mph S3.5 kmh S 6.1 mph9.8 kmh 29.85 in1010.8 mb 0.00 in0.0 mm 0.00 in/hr0.0 mm/hr 0.00 in0.0 mm
11:09 AM 78.3°F25.7°C 49.8°F9.9°C 37% 2.2 mph SE3.5 kmh SE 6.5 mph10.5 kmh 29.85 in1010.8 mb 0.00 in0.0 mm 0.00 in/hr0.0 mm/hr 0.00 in0.0 mm
11:19 AM 79.2°F26.2°C 49.1°F9.5°C 35% 2.2 mph SSE3.5 kmh SSE 5.4 mph8.7 kmh 29.85 in1010.8 mb 0.00 in0.0 mm 0.00 in/hr0.0 mm/hr 0.00 in0.0 mm
11:29 AM 79.3°F26.3°C 49.3°F9.6°C 35% 1.6 mph SE2.6 kmh SE 8.1 mph13.0 kmh 29.85 in1010.8 mb 0.00 in0.0 mm 0.00 in/hr0.0 mm/hr 0.00 in0.0 mm
11:39 AM 79.7°F26.5°C 48.9°F9.4°C 34% 2.0 mph ESE3.2 kmh ESE 4.3 mph6.9 kmh 29.85 in1010.8 mb 0.00 in0.0 mm 0.00 in/hr0.0 mm/hr 0.00 in0.0 mm
11:49 AM 81.3°F27.4°C 50.2°F10.1°C 34% 1.6 mph SE2.6 kmh SE 4.7 mph7.6 kmh 29.85 in1010.8 mb 0.00 in0.0 mm 0.00 in/hr0.0 mm/hr 0.00 in0.0 mm
11:59 AM 81.1°F27.3°C 48.6°F9.2°C 32% 2.7 mph S4.3 kmh S 7.4 mph11.9 kmh 29.85 in1010.8 mb 0.00 in0.0 mm 0.00 in/hr0.0 mm/hr 0.00 in0.0 mm
12:09 PM 82.2°F27.9°C 49.5°F9.7°C 32% 1.6 mph SE2.6 kmh SE 3.6 mph5.8 kmh 29.85 in1010.8 mb 0.00 in0.0 mm 0.00 in/hr0.0 mm/hr 0.00 in0.0 mm
12:19 PM 82.6°F28.1°C 49.8°F9.9°C 32% 2.0 mph SSE3.2 kmh SSE 5.6 mph9.0 kmh 29.85 in1010.8 mb 0.00 in0.0 mm 0.00 in/hr0.0 mm/hr 0.00 in0.0 mm
12:29 PM 82.6°F28.1°C 48.9°F9.4°C 31% 2.7 mph SSE4.3 kmh SSE 6.5 mph10.5 kmh 29.83 in1010.2 mb 0.00 in0.0 mm 0.00 in/hr0.0 mm/hr 0.00 in0.0 mm
12:39 PM 83.1°F28.4°C 48.4°F9.1°C 30% 1.8 mph SSE2.9 kmh SSE 8.5 mph13.7 kmh 29.83 in1010.2 mb 0.00 in0.0 mm 0.00 in/hr0.0 mm/hr 0.00 in0.0 mm
12:49 PM 83.1°F28.4°C 48.4°F9.1°C 30% 2.2 mph S3.5 kmh S 5.8 mph9.3 kmh 29.83 in1010.2 mb 0.00 in0.0 mm 0.00 in/hr0.0 mm/hr 0.00 in0.0 mm
12:59 PM 83.8°F28.8°C 49.1°F9.5°C 30% 1.8 mph SE2.9 kmh SE 6.1 mph9.8 kmh 29.83 in1010.2 mb 0.00 in0.0 mm 0.00 in/hr0.0 mm/hr 0.00 in0.0 mm
01:09 PM 84.4°F29.1°C 49.6°F9.8°C 30% 2.2 mph SSE3.5 kmh SSE 6.5 mph10.5 kmh 29.83 in1010.2 mb 0.00 in0.0 mm 0.00 in/hr0.0 mm/hr 0.00 in0.0 mm
01:19 PM 84.0°F28.9°C 49.3°F9.6°C 30% 2.5 mph SE4.0 kmh SE 6.1 mph9.8 kmh 29.83 in1010.2 mb 0.00 in0.0 mm 0.00 in/hr0.0 mm/hr 0.00 in0.0 mm
01:29 PM 84.0°F28.9°C 48.4°F9.1°C 29% 1.8 mph SE2.9 kmh SE 4.3 mph6.9 kmh 29.83 in1010.2 mb 0.00 in0.0 mm 0.00 in/hr0.0 mm/hr 0.00 in0.0 mm
01:39 PM 84.6°F29.2°C 48.7°F9.3°C 29% 1.6 mph SE2.6 kmh SE 3.4 mph5.5 kmh 29.85 in1010.8 mb 0.00 in0.0 mm 0.00 in/hr0.0 mm/hr 0.00 in0.0 mm
01:49 PM 84.7°F29.3°C 48.9°F9.4°C 29% 2.0 mph SE3.2 kmh SE 7.4 mph11.9 kmh 29.88 in1011.9 mb 0.00 in0.0 mm 0.00 in/hr0.0 mm/hr 0.00 in0.0 mm
01:59 PM 84.2°F29.0°C 47.5°F8.6°C 28% 2.5 mph SE4.0 kmh SE 6.3 mph10.1 kmh 29.88 in1011.9 mb 0.00 in0.0 mm 0.00 in/hr0.0 mm/hr 0.00 in0.0 mm
02:09 PM 84.2°F29.0°C 46.6°F8.1°C 27% 2.5 mph S4.0 kmh S 6.1 mph9.8 kmh 29.87 in1011.5 mb 0.00 in0.0 mm 0.00 in/hr0.0 mm/hr 0.00 in0.0 mm
02:19 PM 84.4°F29.1°C 46.8°F8.2°C 27% 2.2 mph SE3.5 kmh SE 4.5 mph7.2 kmh 29.85 in1010.8 mb 0.00 in0.0 mm 0.00 in/hr0.0 mm/hr 0.00 in0.0 mm
02:29 PM 84.9°F29.4°C 46.2°F7.9°C 26% 2.0 mph SE3.2 kmh SE 5.6 mph9.0 kmh 29.85 in1010.8 mb 0.00 in0.0 mm 0.00 in/hr0.0 mm/hr 0.00 in0.0 mm
02:39 PM 84.7°F29.3°C 46.0°F7.8°C 26% 2.0 mph SSE3.2 kmh SSE 4.7 mph7.6 kmh 29.85 in1010.8 mb 0.00 in0.0 mm 0.00 in/hr0.0 mm/hr 0.00 in0.0 mm
02:49 PM 84.4°F29.1°C 46.8°F8.2°C 27% 2.7 mph S4.3 kmh S 6.7 mph10.8 kmh 29.85 in1010.8 mb 0.00 in0.0 mm 0.00 in/hr0.0 mm/hr 0.00 in0.0 mm
02:59 PM 83.7°F28.7°C 44.1°F6.7°C 25% 2.5 mph SE4.0 kmh SE 6.1 mph9.8 kmh 29.88 in1011.9 mb 0.00 in0.0 mm 0.00 in/hr0.0 mm/hr 0.00 in0.0 mm
03:09 PM 83.8°F28.8°C 43.2°F6.2°C 24% 2.5 mph S4.0 kmh S 7.4 mph11.9 kmh 29.87 in1011.5 mb 0.00 in0.0 mm 0.00 in/hr0.0 mm/hr 0.00 in0.0 mm
03:19 PM 84.6°F29.2°C 43.9°F6.6°C 24% 1.1 mph ESE1.8 kmh ESE 3.8 mph6.1 kmh 29.85 in1010.8 mb 0.00 in0.0 mm 0.00 in/hr0.0 mm/hr 0.00 in0.0 mm
03:29 PM 84.2°F29.0°C 43.5°F6.4°C 24% 2.2 mph SE3.5 kmh SE 5.8 mph9.3 kmh 29.85 in1010.8 mb 0.00 in0.0 mm 0.00 in/hr0.0 mm/hr 0.00 in0.0 mm
03:39 PM 83.7°F28.7°C 43.0°F6.1°C 24% 2.7 mph SE4.3 kmh SE 7.9 mph12.7 kmh 29.85 in1010.8 mb 0.00 in0.0 mm 0.00 in/hr0.0 mm/hr 0.00 in0.0 mm
03:49 PM 84.2°F29.0°C 43.5°F6.4°C 24% 2.0 mph SSE3.2 kmh SSE 4.0 mph6.4 kmh 29.85 in1010.8 mb 0.00 in0.0 mm 0.00 in/hr0.0 mm/hr 0.00 in0.0 mm
03:59 PM 83.8°F28.8°C 42.1°F5.6°C 23% 3.1 mph SE5.0 kmh SE 7.4 mph11.9 kmh 29.85 in1010.8 mb 0.00 in0.0 mm 0.00 in/hr0.0 mm/hr 0.00 in0.0 mm
04:09 PM 82.9°F28.3°C 42.4°F5.8°C 24% 2.7 mph SE4.3 kmh SE 6.1 mph9.8 kmh 29.85 in1010.8 mb 0.00 in0.0 mm 0.00 in/hr0.0 mm/hr 0.00 in0.0 mm
04:19 PM 82.9°F28.3°C 43.5°F6.4°C 25% 1.3 mph SSE2.1 kmh SSE 5.4 mph8.7 kmh 29.85 in1010.8 mb 0.00 in0.0 mm 0.00 in/hr0.0 mm/hr 0.00 in0.0 mm
04:29 PM 82.8°F28.2°C 43.3°F6.3°C 25% 2.9 mph SE4.7 kmh SE 6.3 mph10.1 kmh 29.83 in1010.2 mb 0.00 in0.0 mm 0.00 in/hr0.0 mm/hr 0.00 in0.0 mm
04:39 PM 82.4°F28.0°C 41.9°F5.5°C 24% 1.8 mph ESE2.9 kmh ESE 5.8 mph9.3 kmh 29.83 in1010.2 mb 0.00 in0.0 mm 0.00 in/hr0.0 mm/hr 0.00 in0.0 mm
04:49 PM 82.6°F28.1°C 41.0°F5.0°C 23% 2.0 mph SE3.2 kmh SE 4.9 mph7.9 kmh 29.83 in1010.2 mb 0.00 in0.0 mm 0.00 in/hr0.0 mm/hr 0.00 in0.0 mm
04:59 PM 82.8°F28.2°C 41.2°F5.1°C 23% 2.0 mph SSE3.2 kmh SSE 5.4 mph8.7 kmh 29.83 in1010.2 mb 0.00 in0.0 mm 0.00 in/hr0.0 mm/hr 0.00 in0.0 mm
05:09 PM 82.6°F28.1°C 41.0°F5.0°C 23% 1.8 mph SE2.9 kmh SE 4.3 mph6.9 kmh 29.83 in1010.2 mb 0.00 in0.0 mm 0.00 in/hr0.0 mm/hr 0.00 in0.0 mm
05:19 PM 82.9°F28.3°C 42.4°F5.8°C 24% 0.7 mph SE1.1 kmh SE 4.0 mph6.4 kmh 29.83 in1010.2 mb 0.00 in0.0 mm 0.00 in/hr0.0 mm/hr 0.00 in0.0 mm
05:29 PM 82.2°F27.9°C 40.6°F4.8°C 23% 1.1 mph ESE1.8 kmh ESE 3.8 mph6.1 kmh 29.83 in1010.2 mb 0.00 in0.0 mm 0.00 in/hr0.0 mm/hr 0.00 in0.0 mm
05:39 PM 82.0°F27.8°C 40.6°F4.8°C 23% 1.1 mph SE1.8 kmh SE 3.4 mph5.5 kmh 29.83 in1010.2 mb 0.00 in0.0 mm 0.00 in/hr0.0 mm/hr 0.00 in0.0 mm
05:49 PM 81.7°F27.6°C 41.4°F5.2°C 24% 1.1 mph S1.8 kmh S 3.6 mph5.8 kmh 29.83 in1010.2 mb 0.00 in0.0 mm 0.00 in/hr0.0 mm/hr 0.00 in0.0 mm
05:59 PM 81.3°F27.4°C 41.0°F5.0°C 24% 1.1 mph SE1.8 kmh SE 3.1 mph5.0 kmh 29.83 in1010.2 mb 0.00 in0.0 mm 0.00 in/hr0.0 mm/hr 0.00 in0.0 mm
06:09 PM 81.3°F27.4°C 41.0°F5.0°C 24% 0.4 mph SW0.6 kmh SW 3.4 mph5.5 kmh 29.83 in1010.2 mb 0.00 in0.0 mm 0.00 in/hr0.0 mm/hr 0.00 in0.0 mm
06:19 PM 81.3°F27.4°C 42.1°F5.6°C 25% 0.4 mph SE0.6 kmh SE 2.7 mph4.3 kmh 29.83 in1010.2 mb 0.00 in0.0 mm 0.00 in/hr0.0 mm/hr 0.00 in0.0 mm
06:29 PM 80.8°F27.1°C 41.7°F5.4°C 25% 0.2 mph SSE0.3 kmh SSE 1.6 mph2.6 kmh 29.83 in1010.2 mb 0.00 in0.0 mm 0.00 in/hr0.0 mm/hr 0.00 in0.0 mm
06:39 PM 81.0°F27.2°C 42.8°F6.0°C 26% - S16091.8 kmh S 2.5 mph4.0 kmh 29.83 in1010.2 mb 0.00 in0.0 mm 0.00 in/hr0.0 mm/hr 0.00 in0.0 mm
06:49 PM 80.8°F27.1°C 44.6°F7.0°C 28% 0.4 mph SW0.6 kmh SW 2.0 mph3.2 kmh 29.83 in1010.2 mb 0.00 in0.0 mm 0.00 in/hr0.0 mm/hr 0.00 in0.0 mm
06:59 PM 80.2°F26.8°C 45.1°F7.3°C 29% - E16091.8 kmh E 1.3 mph2.1 kmh 29.83 in1010.2 mb 0.00 in0.0 mm 0.00 in/hr0.0 mm/hr 0.00 in0.0 mm
07:09 PM 79.3°F26.3°C 45.1°F7.3°C 30% 0.2 mph WSW0.3 kmh WSW 1.6 mph2.6 kmh 29.83 in1010.2 mb 0.00 in0.0 mm 0.00 in/hr0.0 mm/hr 0.00 in0.0 mm
07:19 PM 78.3°F25.7°C 46.0°F7.8°C 32% - E16091.8 kmh E -- 29.83 in1010.2 mb 0.00 in0.0 mm 0.00 in/hr0.0 mm/hr 0.00 in0.0 mm
07:30 PM 77.2°F25.1°C 47.5°F8.6°C 35% - E16091.8 kmh E -- 29.83 in1010.2 mb 0.00 in0.0 mm 0.00 in/hr0.0 mm/hr 0.00 in0.0 mm
07:40 PM 76.1°F24.5°C 47.1°F8.4°C 36% - E16091.8 kmh E -- 29.83 in1010.2 mb 0.00 in0.0 mm 0.00 in/hr0.0 mm/hr 0.00 in0.0 mm
07:50 PM 74.8°F23.8°C 48.2°F9.0°C 39% - E16091.8 kmh E -- 29.83 in1010.2 mb 0.00 in0.0 mm 0.00 in/hr0.0 mm/hr 0.00 in0.0 mm
08:00 PM 73.0°F22.8°C 48.0°F8.9°C 41% - E16091.8 kmh E -- 29.83 in1010.2 mb 0.00 in0.0 mm 0.00 in/hr0.0 mm/hr 0.00 in0.0 mm
08:10 PM 71.1°F21.7°C 48.0°F8.9°C 44% - E16091.8 kmh E -- 29.83 in1010.2 mb 0.00 in0.0 mm 0.00 in/hr0.0 mm/hr 0.00 in0.0 mm
08:20 PM 69.4°F20.8°C 47.8°F8.8°C 46% - E16091.8 kmh E -- 29.83 in1010.2 mb 0.00 in0.0 mm 0.00 in/hr0.0 mm/hr 0.00 in0.0 mm
08:30 PM 68.0°F20.0°C 48.2°F9.0°C 49% - E16091.8 kmh E -- 29.83 in1010.2 mb 0.00 in0.0 mm 0.00 in/hr0.0 mm/hr 0.00 in0.0 mm
08:40 PM 66.7°F19.3°C 49.6°F9.8°C 54% - E16091.8 kmh E -- 29.83 in1010.2 mb 0.00 in0.0 mm 0.00 in/hr0.0 mm/hr 0.00 in0.0 mm
08:50 PM 65.7°F18.7°C 50.0°F10.0°C 57% - E16091.8 kmh E -- 29.83 in1010.2 mb 0.00 in0.0 mm 0.00 in/hr0.0 mm/hr 0.00 in0.0 mm
09:00 PM 64.6°F18.1°C 50.0°F10.0°C 59% - E16091.8 kmh E -- 29.83 in1010.2 mb 0.00 in0.0 mm 0.00 in/hr0.0 mm/hr 0.00 in0.0 mm
09:10 PM 63.5°F17.5°C 50.2°F10.1°C 62% - E16091.8 kmh E -- 29.84 in1010.5 mb 0.00 in0.0 mm 0.00 in/hr0.0 mm/hr 0.00 in0.0 mm
09:20 PM 62.6°F17.0°C 50.7°F10.4°C 65% - E16091.8 kmh E -- 29.85 in1010.8 mb 0.00 in0.0 mm 0.00 in/hr0.0 mm/hr 0.00 in0.0 mm
09:30 PM 61.7°F16.5°C 50.5°F10.3°C 67% - E16091.8 kmh E -- 29.85 in1010.8 mb 0.00 in0.0 mm 0.00 in/hr0.0 mm/hr 0.00 in0.0 mm
09:40 PM 61.2°F16.2°C 50.5°F10.3°C 68% - E16091.8 kmh E -- 29.85 in1010.8 mb 0.00 in0.0 mm 0.00 in/hr0.0 mm/hr 0.00 in0.0 mm
09:50 PM 60.4°F15.8°C 50.5°F10.3°C 70% - E16091.8 kmh E -- 29.85 in1010.8 mb 0.00 in0.0 mm 0.00 in/hr0.0 mm/hr 0.00 in0.0 mm
10:00 PM 59.9°F15.5°C 50.5°F10.3°C 71% - E16091.8 kmh E -- 29.85 in1010.8 mb 0.00 in0.0 mm 0.00 in/hr0.0 mm/hr 0.00 in0.0 mm
10:10 PM 59.4°F15.2°C 50.7°F10.4°C 73% - E16091.8 kmh E -- 29.87 in1011.5 mb 0.00 in0.0 mm 0.00 in/hr0.0 mm/hr 0.00 in0.0 mm
10:20 PM 59.0°F15.0°C 50.7°F10.4°C 74% - E16091.8 kmh E -- 29.88 in1011.9 mb 0.00 in0.0 mm 0.00 in/hr0.0 mm/hr 0.00 in0.0 mm
10:30 PM 58.6°F14.8°C 51.1°F10.6°C 76% - E16091.8 kmh E -- 29.86 in1011.2 mb 0.00 in0.0 mm 0.00 in/hr0.0 mm/hr 0.00 in0.0 mm
10:40 PM 58.3°F14.6°C 51.1°F10.6°C 77% - E16091.8 kmh E -- 29.87 in1011.5 mb 0.00 in0.0 mm 0.00 in/hr0.0 mm/hr 0.00 in0.0 mm
10:50 PM 57.9°F14.4°C 50.7°F10.4°C 77% - E16091.8 kmh E -- 29.88 in1011.9 mb 0.00 in0.0 mm 0.00 in/hr0.0 mm/hr 0.00 in0.0 mm
11:00 PM 57.6°F14.2°C 50.7°F10.4°C 78% - E16091.8 kmh E -- 29.86 in1011.2 mb 0.00 in0.0 mm 0.00 in/hr0.0 mm/hr 0.00 in0.0 mm
11:10 PM 57.4°F14.1°C 51.3°F10.7°C 80% - E16091.8 kmh E -- 29.85 in1010.8 mb 0.00 in0.0 mm 0.00 in/hr0.0 mm/hr 0.00 in0.0 mm
11:20 PM 57.0°F13.9°C 51.3°F10.7°C 81% - E16091.8 kmh E -- 29.85 in1010.8 mb 0.00 in0.0 mm 0.00 in/hr0.0 mm/hr 0.00 in0.0 mm
11:30 PM 56.8°F13.8°C 51.1°F10.6°C 81% - E16091.8 kmh E -- 29.85 in1010.8 mb 0.00 in0.0 mm 0.00 in/hr0.0 mm/hr 0.00 in0.0 mm
11:40 PM 56.7°F13.7°C 51.3°F10.7°C 82% - E16091.8 kmh E -- 29.85 in1010.8 mb 0.00 in0.0 mm 0.00 in/hr0.0 mm/hr 0.00 in0.0 mm
11:50 PM 56.3°F13.5°C 50.9°F10.5°C 82% - E16091.8 kmh E -- 29.85 in1010.8 mb 0.00 in0.0 mm 0.00 in/hr0.0 mm/hr 0.00 in0.0 mm